KPUB/PUB METAR and TAF weather

Enter ICAO airport designator
Station Type Date Time Source
KPUB METAR 2019/04/18 14:53 UTC NOAA

KPUB 181453Z 19006KT 10SM CLR 10/03 A3018 RMK AO2 SLP200 T01000033 51013


Station Type Date Time Source
KPUB Decoded METAR 2019/04/18 14:53 UTC NOAA

PUEBLO MEMORIAL AIRPORT, CO, United States (KPUB) 38-17N 104-30W 1420M
Apr 18, 2019 - 10:53 AM EDT / 2019.04.18 1453 UTC
Wind: from the S (190 degrees) at 7 MPH (6 KT):0
Visibility: 10 mile(s):0
Sky conditions: clear
Temperature: 50.0 F (10.0 C)
Dew Point: 37.9 F (3.3 C)
Relative Humidity: 63%
Pressure (altimeter): 30.18 in. Hg (1022 hPa)
Pressure tendency: 0.04 inches (1.3 hPa) higher than three hours ago
ob: KPUB 181453Z 19006KT 10SM CLR 10/03 A3018 RMK AO2 SLP200 T01000033 51013
cycle: 15

Station Type Date Time Source
KPUB TAF 2019/04/18 12:22 UTC NOAA

TAF KPUB 181120Z 1812/1912 VRB06KT P6SM FEW060
FM181600 36015G25KT P6SM SCT100 BKN200
FM181900 01020G30KT P6SM SCT100 BKN200
FM190200 06008KT P6SM SCT250
FM190600 VRB06KT P6SM SKC

Example: see airport list